createdAt,value
2017-10-18T00:01:38.439Z,11.50
2017-10-18T00:04:12.273Z,11.50
2017-10-18T00:06:49.579Z,11.50
2017-10-18T00:09:23.274Z,11.60
2017-10-18T00:11:57.744Z,11.70
2017-10-18T00:14:31.618Z,11.70
2017-10-18T00:17:06.494Z,11.80
2017-10-18T00:19:40.338Z,11.80
2017-10-18T00:22:14.248Z,11.90
2017-10-18T00:24:47.976Z,12.00
2017-10-18T00:27:21.641Z,12.10
2017-10-18T00:29:55.324Z,12.20
2017-10-18T00:32:29.132Z,12.20
2017-10-18T00:35:02.728Z,12.20
2017-10-18T00:37:37.329Z,12.30
2017-10-18T00:40:10.932Z,12.30
2017-10-18T00:42:44.769Z,12.40
2017-10-18T00:45:20.217Z,12.40
2017-10-18T00:47:54.838Z,12.40
2017-10-18T00:50:28.565Z,12.40
2017-10-18T00:53:02.330Z,12.40
2017-10-18T00:55:36.870Z,12.40
2017-10-18T00:58:11.289Z,12.40
2017-10-18T01:00:44.929Z,12.30
2017-10-18T01:03:18.661Z,12.30
2017-10-18T01:05:52.429Z,12.30
2017-10-18T01:08:26.371Z,12.20
2017-10-18T01:11:00.231Z,12.10
2017-10-18T01:13:33.990Z,12.00
2017-10-18T01:16:08.433Z,11.90
2017-10-18T01:18:47.677Z,11.90
2017-10-18T01:21:21.303Z,11.90
2017-10-18T01:23:55.085Z,11.90
2017-10-18T01:26:28.883Z,11.90
2017-10-18T01:29:02.458Z,11.90
2017-10-18T01:31:36.905Z,11.80
2017-10-18T01:34:10.645Z,11.80
2017-10-18T01:36:44.314Z,11.70
2017-10-18T01:39:18.022Z,11.70
2017-10-18T01:41:51.692Z,11.70
2017-10-18T01:44:25.492Z,11.70
2017-10-18T01:46:59.807Z,11.70
2017-10-18T01:49:33.421Z,11.60
2017-10-18T01:52:07.063Z,11.60
2017-10-18T01:54:40.952Z,11.60
2017-10-18T01:57:14.773Z,11.60
2017-10-18T01:59:48.465Z,11.60
2017-10-18T02:02:22.033Z,11.60
2017-10-18T02:04:55.836Z,11.50
2017-10-18T02:07:29.649Z,11.50
2017-10-18T02:10:04.248Z,11.60
2017-10-18T02:12:38.026Z,11.60
2017-10-18T02:15:11.796Z,11.60
2017-10-18T02:17:45.614Z,11.60
2017-10-18T02:20:19.358Z,11.70
2017-10-18T02:22:52.921Z,11.80
2017-10-18T02:25:26.695Z,11.90
2017-10-18T02:28:00.546Z,11.90
2017-10-18T02:30:34.382Z,12.00
2017-10-18T02:33:08.128Z,12.00
2017-10-18T02:35:41.887Z,12.10
2017-10-18T02:38:15.518Z,12.20
2017-10-18T02:40:49.327Z,12.20
2017-10-18T02:43:23.133Z,12.30
2017-10-18T02:45:56.968Z,12.30
2017-10-18T02:48:30.812Z,12.30
2017-10-18T02:51:05.557Z,12.40
2017-10-18T02:53:39.169Z,12.40
2017-10-18T02:56:12.902Z,12.40
2017-10-18T02:58:46.664Z,12.40
2017-10-18T03:01:21.214Z,12.40
2017-10-18T03:03:54.985Z,12.40
2017-10-18T03:06:28.728Z,12.40
2017-10-18T03:09:02.520Z,12.50
2017-10-18T03:11:36.324Z,12.50
2017-10-18T03:14:10.084Z,12.60
2017-10-18T03:16:43.880Z,12.60
2017-10-18T03:19:21.542Z,12.60
2017-10-18T03:21:55.360Z,12.60
2017-10-18T03:24:29.097Z,12.70
2017-10-18T03:27:02.789Z,12.80
2017-10-18T03:29:36.588Z,12.80
2017-10-18T03:32:10.394Z,12.90
2017-10-18T03:34:43.982Z,12.90
2017-10-18T03:37:17.772Z,12.90
2017-10-18T03:39:51.627Z,12.90
2017-10-18T03:42:25.405Z,12.90
2017-10-18T03:44:59.141Z,13.00
2017-10-18T03:47:33.722Z,13.00
2017-10-18T03:50:07.357Z,13.00
2017-10-18T03:52:41.157Z,13.00
2017-10-18T03:55:14.984Z,13.00
2017-10-18T03:57:49.544Z,13.00
2017-10-18T04:00:23.368Z,13.00
2017-10-18T04:02:57.883Z,13.00
2017-10-18T04:05:31.685Z,13.00
2017-10-18T04:08:06.961Z,13.10
2017-10-18T04:10:41.467Z,13.00
2017-10-18T04:13:16.010Z,13.10
2017-10-18T04:15:49.721Z,13.10
2017-10-18T04:18:24.289Z,13.10
2017-10-18T04:20:58.717Z,13.10
2017-10-18T04:23:33.250Z,13.10
2017-10-18T04:26:07.130Z,13.10
2017-10-18T04:28:40.760Z,13.10
2017-10-18T04:31:14.524Z,13.10
2017-10-18T04:33:48.245Z,13.00
2017-10-18T04:36:22.822Z,13.00
2017-10-18T04:38:56.592Z,13.00
2017-10-18T04:41:31.240Z,13.00
2017-10-18T04:44:05.837Z,13.00
2017-10-18T04:46:39.746Z,13.00
2017-10-18T04:49:13.585Z,13.00
2017-10-18T04:51:47.384Z,13.00
2017-10-18T04:54:21.168Z,13.00
2017-10-18T04:56:54.805Z,13.10
2017-10-18T04:59:29.326Z,13.00
2017-10-18T05:02:03.037Z,13.00
2017-10-18T05:04:36.875Z,13.00
2017-10-18T05:07:11.550Z,13.00
2017-10-18T05:09:46.053Z,13.00
2017-10-18T05:12:19.761Z,13.00
2017-10-18T05:14:53.598Z,13.10
2017-10-18T05:17:28.227Z,13.00
2017-10-18T05:20:02.095Z,13.00
2017-10-18T05:22:36.553Z,13.00
2017-10-18T05:25:10.207Z,13.00
2017-10-18T05:27:43.961Z,12.90
2017-10-18T05:30:17.844Z,12.90
2017-10-18T05:32:51.547Z,12.90
2017-10-18T05:35:25.362Z,12.90
2017-10-18T05:37:59.062Z,12.90
2017-10-18T05:40:32.839Z,12.90
2017-10-18T05:43:06.467Z,12.90
2017-10-18T05:45:40.167Z,13.00
2017-10-18T05:48:14.694Z,13.00
2017-10-18T05:50:49.293Z,13.00
2017-10-18T05:53:22.893Z,13.00
2017-10-18T05:55:56.660Z,13.00
2017-10-18T05:58:30.301Z,13.00
2017-10-18T06:01:04.817Z,13.10
2017-10-18T06:03:38.390Z,13.10
2017-10-18T06:06:11.994Z,13.10
2017-10-18T06:08:45.798Z,13.20
2017-10-18T06:11:19.563Z,13.20
2017-10-18T06:13:53.260Z,13.20
2017-10-18T06:16:27.044Z,13.20
2017-10-18T06:19:01.568Z,13.30
2017-10-18T06:21:36.089Z,13.30
2017-10-18T06:24:09.931Z,13.30
2017-10-18T06:26:44.755Z,13.40
2017-10-18T06:29:18.395Z,13.40
2017-10-18T06:31:52.129Z,13.40
2017-10-18T06:34:25.793Z,13.40
2017-10-18T06:36:59.474Z,13.40
2017-10-18T06:39:34.083Z,13.40
2017-10-18T06:42:08.485Z,13.40
2017-10-18T06:44:42.317Z,13.40
2017-10-18T06:47:16.080Z,13.40
2017-10-18T06:49:49.765Z,13.40
2017-10-18T06:52:23.528Z,13.50
2017-10-18T06:54:57.103Z,13.50
2017-10-18T06:57:31.621Z,13.50
2017-10-18T07:00:05.227Z,13.50
2017-10-18T07:02:39.847Z,13.70
2017-10-18T07:05:14.500Z,13.80
2017-10-18T07:07:49.132Z,13.80
2017-10-18T07:10:22.772Z,13.80
2017-10-18T07:12:56.580Z,13.80
2017-10-18T07:15:30.349Z,13.80
2017-10-18T07:18:04.147Z,13.80
2017-10-18T07:20:38.064Z,13.90
2017-10-18T07:23:11.804Z,14.00
2017-10-18T07:25:45.641Z,14.10
2017-10-18T07:28:19.469Z,14.20
2017-10-18T07:30:53.036Z,14.30
2017-10-18T07:33:26.845Z,14.40
2017-10-18T07:36:00.621Z,14.40
2017-10-18T07:38:35.175Z,14.50
2017-10-18T07:41:08.999Z,14.50
2017-10-18T07:43:42.754Z,14.50
2017-10-18T07:46:16.505Z,14.50
2017-10-18T07:48:50.303Z,14.50
2017-10-18T07:51:24.077Z,14.40
2017-10-18T07:53:57.861Z,14.40
2017-10-18T07:56:31.662Z,14.40
2017-10-18T07:59:05.525Z,14.40
2017-10-18T08:01:39.240Z,14.40
2017-10-18T08:04:13.036Z,14.40
2017-10-18T08:06:46.807Z,14.50
2017-10-18T08:09:20.501Z,14.50
2017-10-18T08:11:54.181Z,14.50
2017-10-18T08:14:28.753Z,14.80
2017-10-18T08:17:02.389Z,14.80
2017-10-18T08:19:36.169Z,14.90
2017-10-18T08:22:09.948Z,15.10
2017-10-18T08:24:43.654Z,15.10
2017-10-18T08:27:17.502Z,15.30
2017-10-18T08:29:51.308Z,15.30
2017-10-18T08:32:25.756Z,15.60
2017-10-18T08:34:59.453Z,15.60
2017-10-18T08:37:33.303Z,15.70
2017-10-18T08:40:07.832Z,15.80
2017-10-18T08:42:41.450Z,15.80
2017-10-18T08:45:15.165Z,15.70
2017-10-18T08:47:49.020Z,15.70
2017-10-18T08:50:23.569Z,15.70
2017-10-18T08:52:57.315Z,15.70
2017-10-18T08:55:31.004Z,15.80
2017-10-18T08:58:04.836Z,15.90
2017-10-18T09:00:38.593Z,16.00
2017-10-18T09:03:12.445Z,16.10
2017-10-18T09:05:46.969Z,16.20
2017-10-18T09:08:20.796Z,16.40
2017-10-18T09:10:54.531Z,16.60
2017-10-18T09:13:28.338Z,16.60
2017-10-18T09:16:02.062Z,16.70
2017-10-18T09:18:35.835Z,16.70
2017-10-18T09:21:09.652Z,16.80
2017-10-18T09:23:43.312Z,16.90
2017-10-18T09:26:17.106Z,16.90
2017-10-18T09:28:51.069Z,16.90
2017-10-18T09:31:24.800Z,17.00
2017-10-18T09:33:58.553Z,17.00
2017-10-18T09:36:32.273Z,17.00
2017-10-18T09:39:05.886Z,17.00
2017-10-18T09:41:39.633Z,17.10
2017-10-18T09:44:13.326Z,17.20
2017-10-18T09:46:47.984Z,17.20
2017-10-18T09:49:21.764Z,17.20
2017-10-18T09:51:55.504Z,17.20
2017-10-18T09:54:29.137Z,17.20
2017-10-18T09:57:02.858Z,17.10
2017-10-18T09:59:36.606Z,17.00
2017-10-18T10:02:10.334Z,17.00
2017-10-18T10:04:44.106Z,17.00
2017-10-18T10:07:17.920Z,17.00
2017-10-18T10:09:51.696Z,17.10
2017-10-18T10:12:25.464Z,17.30
2017-10-18T10:14:59.161Z,17.30
2017-10-18T10:17:32.860Z,17.30
2017-10-18T10:20:07.298Z,17.20
2017-10-18T10:22:41.039Z,17.10
2017-10-18T10:25:14.709Z,16.90
2017-10-18T10:27:48.543Z,17.10
2017-10-18T10:30:22.248Z,17.10
2017-10-18T10:32:56.150Z,17.10
2017-10-18T10:35:29.956Z,17.20
2017-10-18T10:38:03.733Z,17.20
2017-10-18T10:40:37.504Z,17.30
2017-10-18T10:43:11.258Z,17.30
2017-10-18T10:45:44.956Z,17.20
2017-10-18T10:48:18.673Z,17.30
2017-10-18T10:50:52.378Z,17.60
2017-10-18T10:53:26.855Z,18.30
2017-10-18T10:56:00.581Z,18.30
2017-10-18T10:58:34.312Z,18.60
2017-10-18T11:01:08.149Z,18.70
2017-10-18T11:03:41.894Z,18.60
2017-10-18T11:06:15.644Z,18.50
2017-10-18T11:08:49.434Z,18.20
2017-10-18T11:11:23.952Z,18.20
2017-10-18T11:13:57.736Z,18.20
2017-10-18T11:16:32.552Z,18.70
2017-10-18T11:19:06.145Z,18.60
2017-10-18T11:21:40.025Z,18.70
2017-10-18T11:24:13.808Z,18.80
2017-10-18T11:26:48.428Z,18.90
2017-10-18T11:29:22.108Z,18.90
2017-10-18T11:31:56.564Z,18.70
2017-10-18T11:34:30.393Z,18.70
2017-10-18T11:37:04.119Z,18.50
2017-10-18T11:39:37.858Z,18.30
2017-10-18T11:42:11.575Z,18.00
2017-10-18T11:44:45.356Z,18.00
2017-10-18T11:47:20.041Z,18.00
2017-10-18T11:49:54.625Z,18.00
2017-10-18T11:52:28.388Z,18.00
2017-10-18T11:55:02.917Z,17.80
2017-10-18T11:57:36.641Z,17.80
2017-10-18T12:00:10.377Z,17.80
2017-10-18T12:02:45.187Z,17.90
2017-10-18T12:05:19.068Z,17.90
2017-10-18T12:07:52.845Z,17.80
2017-10-18T12:10:26.456Z,17.90
2017-10-18T12:13:00.064Z,17.70
2017-10-18T12:15:33.879Z,17.60
2017-10-18T12:18:07.849Z,17.70
2017-10-18T12:20:42.314Z,17.90
2017-10-18T12:23:16.044Z,17.90
2017-10-18T12:25:50.514Z,18.30
2017-10-18T12:28:24.520Z,18.20
2017-10-18T12:30:58.349Z,18.30
2017-10-18T12:33:32.010Z,18.30
2017-10-18T12:36:05.736Z,18.30
2017-10-18T12:38:39.352Z,18.40
2017-10-18T12:41:13.196Z,18.70
2017-10-18T12:43:46.799Z,19.00
2017-10-18T12:46:20.405Z,19.60
2017-10-18T12:48:54.083Z,20.20
2017-10-18T12:51:28.016Z,21.10
2017-10-18T12:54:01.825Z,21.60
2017-10-18T12:56:35.425Z,22.10
2017-10-18T12:59:09.033Z,22.80
2017-10-18T13:01:42.804Z,23.30
2017-10-18T13:04:16.472Z,23.40
2017-10-18T13:06:51.012Z,23.80
2017-10-18T13:09:24.722Z,23.80
2017-10-18T13:11:58.420Z,23.80
2017-10-18T13:14:32.250Z,24.10
2017-10-18T13:17:05.871Z,24.20
2017-10-18T13:19:39.467Z,24.50
2017-10-18T13:22:13.296Z,24.40
2017-10-18T13:24:47.153Z,24.20
2017-10-18T13:27:20.952Z,24.70
2017-10-18T13:29:54.778Z,24.80
2017-10-18T13:32:28.583Z,25.20
2017-10-18T13:35:03.250Z,25.50
2017-10-18T13:37:36.987Z,25.50
2017-10-18T13:40:10.782Z,25.60
2017-10-18T13:42:44.549Z,26.00
2017-10-18T13:45:18.381Z,26.20
2017-10-18T13:47:52.314Z,26.60
2017-10-18T13:50:26.748Z,27.00
2017-10-18T13:53:00.467Z,27.00
2017-10-18T13:55:34.069Z,27.30
2017-10-18T13:58:07.832Z,27.40
2017-10-18T14:00:41.591Z,27.30
2017-10-18T14:03:15.291Z,27.00
2017-10-18T14:05:49.132Z,26.00
2017-10-18T14:08:22.925Z,25.60
2017-10-18T14:10:57.601Z,25.60
2017-10-18T14:13:31.326Z,25.50
2017-10-18T14:16:05.821Z,26.30
2017-10-18T14:18:40.143Z,26.50
2017-10-18T14:21:13.876Z,26.50
2017-10-18T14:23:48.473Z,26.80
2017-10-18T14:26:22.204Z,26.80
2017-10-18T14:28:55.847Z,27.00
2017-10-18T14:31:29.473Z,27.20
2017-10-18T14:34:03.888Z,27.40
2017-10-18T14:36:38.320Z,27.20
2017-10-18T14:39:12.095Z,27.20
2017-10-18T14:41:45.941Z,27.30
2017-10-18T14:44:19.780Z,27.20
2017-10-18T14:46:53.577Z,26.70
2017-10-18T14:49:27.418Z,25.90
2017-10-18T14:52:01.087Z,25.70
2017-10-18T14:54:34.882Z,25.60
2017-10-18T14:57:08.664Z,25.60
2017-10-18T14:59:42.337Z,25.60
2017-10-18T15:02:16.184Z,25.40
2017-10-18T15:04:49.781Z,25.00
2017-10-18T15:07:23.482Z,24.90
2017-10-18T15:09:57.200Z,25.00
2017-10-18T15:12:31.036Z,24.50
2017-10-18T15:15:05.511Z,24.30
2017-10-18T15:17:39.313Z,24.20
2017-10-18T15:20:13.767Z,23.40
2017-10-18T15:22:47.368Z,23.30
2017-10-18T15:25:21.200Z,22.90
2017-10-18T15:27:54.857Z,22.20
2017-10-18T15:30:29.376Z,20.90
2017-10-18T15:33:02.988Z,20.90
2017-10-18T15:35:37.481Z,19.80
2017-10-18T15:38:11.229Z,19.80
2017-10-18T15:40:44.924Z,19.30
2017-10-18T15:43:18.529Z,19.00
2017-10-18T15:45:52.138Z,18.70
2017-10-18T15:48:25.735Z,18.40
2017-10-18T15:50:59.713Z,18.20
2017-10-18T15:53:33.500Z,18.10
2017-10-18T15:56:08.185Z,17.90
2017-10-18T15:58:41.893Z,17.80
2017-10-18T16:01:15.659Z,17.60
2017-10-18T16:03:49.377Z,17.40
2017-10-18T16:06:23.169Z,17.30
2017-10-18T16:08:56.899Z,17.10
2017-10-18T16:11:30.602Z,16.90
2017-10-18T16:14:04.374Z,16.80
2017-10-18T16:16:38.125Z,16.70
2017-10-18T16:19:11.799Z,16.50
2017-10-18T16:21:46.339Z,16.30
2017-10-18T16:24:20.733Z,16.20
2017-10-18T16:26:54.516Z,16.20
2017-10-18T16:29:28.271Z,16.10
2017-10-18T16:32:02.035Z,15.90
2017-10-18T16:34:35.713Z,15.80
2017-10-18T16:37:09.345Z,15.70
2017-10-18T16:39:43.176Z,15.70
2017-10-18T16:42:17.821Z,15.50
2017-10-18T16:44:51.521Z,15.50
2017-10-18T16:47:25.909Z,15.30
2017-10-18T16:49:59.748Z,15.30
2017-10-18T16:52:33.604Z,15.20
2017-10-18T16:55:07.457Z,15.10
2017-10-18T16:57:41.032Z,15.10
2017-10-18T17:00:15.750Z,15.00
2017-10-18T17:02:50.198Z,14.90
2017-10-18T17:05:23.757Z,14.90
2017-10-18T17:07:58.304Z,14.80
2017-10-18T17:10:32.025Z,14.80
2017-10-18T17:13:05.756Z,14.80
2017-10-18T17:15:39.858Z,14.80
2017-10-18T17:18:13.560Z,14.70
2017-10-18T17:20:47.312Z,14.70
2017-10-18T17:23:21.049Z,14.70
2017-10-18T17:25:54.840Z,14.70
2017-10-18T17:28:28.565Z,14.60
2017-10-18T17:31:03.169Z,14.50
2017-10-18T17:33:36.780Z,14.50
2017-10-18T17:36:12.096Z,14.30
2017-10-18T17:38:46.655Z,14.30
2017-10-18T17:41:20.341Z,14.30
2017-10-18T17:43:54.133Z,14.20
2017-10-18T17:46:27.956Z,14.10
2017-10-18T17:49:01.774Z,14.10
2017-10-18T17:51:36.473Z,14.10
2017-10-18T17:54:10.427Z,14.00
2017-10-18T17:56:44.142Z,14.00
2017-10-18T17:59:17.906Z,13.90
2017-10-18T18:01:51.721Z,13.90
2017-10-18T18:04:25.446Z,13.80
2017-10-18T18:07:00.020Z,13.80
2017-10-18T18:09:33.757Z,13.70
2017-10-18T18:12:08.857Z,13.70
2017-10-18T18:14:42.958Z,13.60
2017-10-18T18:17:16.581Z,13.50
2017-10-18T18:19:50.419Z,13.50
2017-10-18T18:22:25.034Z,13.50
2017-10-18T18:24:59.455Z,13.50
2017-10-18T18:27:33.972Z,13.40
2017-10-18T18:30:07.768Z,13.40
2017-10-18T18:32:41.849Z,13.40
2017-10-18T18:35:16.788Z,13.40
2017-10-18T18:37:50.639Z,13.40
2017-10-18T18:40:24.529Z,13.40
2017-10-18T18:42:58.936Z,13.40
2017-10-18T18:45:34.209Z,13.30
2017-10-18T18:48:07.852Z,13.30
2017-10-18T18:50:42.540Z,13.30
2017-10-18T18:53:17.234Z,13.30
2017-10-18T18:55:51.061Z,13.20
2017-10-18T18:58:26.248Z,13.20
2017-10-18T19:00:59.995Z,13.20
2017-10-18T19:03:33.745Z,13.20
2017-10-18T19:06:07.602Z,13.10
2017-10-18T19:08:41.443Z,13.00
2017-10-18T19:11:15.130Z,13.00
2017-10-18T19:13:49.625Z,12.90
2017-10-18T19:16:24.079Z,12.90
2017-10-18T19:18:57.909Z,12.80
2017-10-18T19:21:31.701Z,12.80
2017-10-18T19:24:05.491Z,12.80
2017-10-18T19:26:39.403Z,12.80
2017-10-18T19:29:13.173Z,12.70
2017-10-18T19:31:47.261Z,12.60
2017-10-18T19:34:21.962Z,12.60
2017-10-18T19:36:55.556Z,12.50
2017-10-18T19:39:29.653Z,12.50
2017-10-18T19:42:03.254Z,12.40
2017-10-18T19:44:38.209Z,12.40
2017-10-18T19:47:12.680Z,12.20
2017-10-18T19:49:46.513Z,12.20
2017-10-18T19:52:20.188Z,12.10
2017-10-18T19:54:53.912Z,12.10
2017-10-18T19:57:27.726Z,12.00
2017-10-18T20:00:01.392Z,12.00
2017-10-18T20:02:35.005Z,12.00
2017-10-18T20:05:09.532Z,11.90
2017-10-18T20:07:43.249Z,11.90
2017-10-18T20:10:17.752Z,11.90
2017-10-18T20:12:51.503Z,11.80
2017-10-18T20:15:25.275Z,11.90
2017-10-18T20:17:59.612Z,11.80
2017-10-18T20:20:33.418Z,11.80
2017-10-18T20:23:07.222Z,11.80
2017-10-18T20:25:41.825Z,11.70
2017-10-18T20:28:15.454Z,11.70
2017-10-18T20:30:49.123Z,11.70
2017-10-18T20:33:22.860Z,11.60
2017-10-18T20:35:56.636Z,11.60
2017-10-18T20:38:31.126Z,11.50
2017-10-18T20:41:04.808Z,11.50
2017-10-18T20:43:38.389Z,11.50
2017-10-18T20:46:12.873Z,11.40
2017-10-18T20:48:46.705Z,11.40
2017-10-18T20:51:20.468Z,11.40
2017-10-18T20:53:54.226Z,11.40
2017-10-18T20:56:27.969Z,11.40
2017-10-18T20:59:02.448Z,11.30
2017-10-18T21:01:36.227Z,11.30
2017-10-18T21:04:10.025Z,11.40
2017-10-18T21:06:43.659Z,11.40
2017-10-18T21:09:17.378Z,11.40
2017-10-18T21:11:51.147Z,11.40
2017-10-18T21:14:24.880Z,11.40
2017-10-18T21:16:59.289Z,11.30
2017-10-18T21:19:33.005Z,11.30
2017-10-18T21:22:06.649Z,11.30
2017-10-18T21:24:41.328Z,11.20
2017-10-18T21:27:15.082Z,11.20
2017-10-18T21:29:48.954Z,11.30
2017-10-18T21:32:23.695Z,11.40
2017-10-18T21:34:58.722Z,11.40
2017-10-18T21:37:33.127Z,11.50
2017-10-18T21:40:12.402Z,11.60
2017-10-18T21:42:53.381Z,11.70
2017-10-18T21:45:29.183Z,11.80
2017-10-18T21:48:02.884Z,11.80
2017-10-18T21:50:36.805Z,11.90
2017-10-18T21:53:10.538Z,11.90
2017-10-18T21:55:44.372Z,12.00
2017-10-18T21:58:18.120Z,12.00
2017-10-18T22:00:52.123Z,12.00
2017-10-18T22:03:26.531Z,12.00
2017-10-18T22:06:00.355Z,12.00
2017-10-18T22:08:34.173Z,12.00
2017-10-18T22:11:08.784Z,11.90
2017-10-18T22:13:42.531Z,12.00
2017-10-18T22:16:16.305Z,11.90
2017-10-18T22:18:50.616Z,11.90
2017-10-18T22:21:24.445Z,11.90
2017-10-18T22:23:58.185Z,11.80
2017-10-18T22:26:32.770Z,11.80
2017-10-18T22:29:07.211Z,11.80
2017-10-18T22:31:41.790Z,11.80
2017-10-18T22:34:15.836Z,11.80
2017-10-18T22:36:50.584Z,11.80
2017-10-18T22:39:24.721Z,11.80
2017-10-18T22:41:58.444Z,11.80
2017-10-18T22:44:32.217Z,11.80
2017-10-18T22:47:06.702Z,11.80
2017-10-18T22:49:40.533Z,11.80
2017-10-18T22:52:14.130Z,11.80
2017-10-18T22:54:47.913Z,11.80
2017-10-18T22:57:21.680Z,11.80
2017-10-18T22:59:55.514Z,11.80
2017-10-18T23:02:29.435Z,11.80
2017-10-18T23:05:03.892Z,11.80
2017-10-18T23:07:37.805Z,11.80
2017-10-18T23:10:11.480Z,11.80
2017-10-18T23:12:46.129Z,11.90
2017-10-18T23:15:20.643Z,11.90
2017-10-18T23:17:54.493Z,11.90
2017-10-18T23:20:28.241Z,11.90
2017-10-18T23:23:01.925Z,11.90
2017-10-18T23:25:35.609Z,11.90
2017-10-18T23:28:09.221Z,11.90
2017-10-18T23:30:42.980Z,12.00
2017-10-18T23:33:17.628Z,12.10
2017-10-18T23:35:52.126Z,12.10
2017-10-18T23:38:25.733Z,12.00
2017-10-18T23:40:59.479Z,12.10
2017-10-18T23:43:33.969Z,12.10
2017-10-18T23:46:07.699Z,12.10
2017-10-18T23:48:41.488Z,12.20
2017-10-18T23:51:15.204Z,12.10
2017-10-18T23:53:48.863Z,12.10
2017-10-18T23:56:22.618Z,12.10
2017-10-18T23:58:56.161Z,12.00
